Observations for STANSTED AIRPORT, United Kingdom (EGSS)

EGSS 192020Z AUTO 22007KT 9999 NCD 07/06 Q1004  
EGSS 191950Z AUTO 24005KT 9999 NCD 08/06 Q1003  
EGSS 191920Z AUTO 21006KT 9999 NCD 09/07 Q1003  
EGSS 191850Z AUTO 22006KT 9999 NCD 08/06 Q1003  
EGSS 191820Z AUTO 22005KT 9999 NCD 09/06 Q1003  
EGSS 191750Z AUTO 24005KT 9999 NCD 09/07 Q1002  
EGSS 191720Z AUTO 28002KT 9999 SCT034 10/07 Q1002   
EGSS 191650Z AUTO 25005KT 9999 SCT035 11/07 Q1002   
EGSS 191620Z AUTO 27004KT 9999 BKN033 12/07 Q1001   
EGSS 191550Z AUTO 25005KT 9999 SCT038 13/07 Q1001   
EGSS 191520Z AUTO 25007KT 220V280 9999 FEW035 13/07 Q1001   
EGSS 191450Z AUTO 26006KT 230V300 9999 NCD 14/07 Q1001  
EGSS 191420Z AUTO 24010KT 9999 SCT032 14/07 Q1000   
EGSS 191350Z AUTO 24011KT 9999 FEW033 SCT044 14/07 Q1000
EGSS 191320Z AUTO 23012KT 9999 NCD 15/08 Q1000  
EGSS 191250Z AUTO 23011KT 9999 BKN035 BKN045 13/07 Q1000
EGSS 191220Z AUTO 24010KT 9999 SCT034 BKN042 13/07 Q1000
EGSS 191150Z AUTO 23013KT 190V270 9999 SCT026 SCT033 BKN039 14/08 Q1000 
EGSS 191120Z AUTO 23013KT 9999 SCT026 13/07 Q1000   
EGSS 191050Z AUTO 24011KT 9999 FEW023 13/08 Q1000   
EGSS 191020Z AUTO 22012KT 9999 NCD 13/09 Q0999  
EGSS 190950Z AUTO 22013KT 9999 BKN014 BKN018 12/09 Q0999
EGSS 190920Z AUTO 23011KT 9999 FEW013 12/09 Q0999   
EGSS 190850Z AUTO 22011KT 9999 BKN010 11/09 Q0999   
EGSS 190820Z AUTO 22010KT 9999 SCT010 10/09 Q0999   
EGSS 190750Z AUTO 21009KT 9999 NCD 10/09 Q0999  
EGSS 190720Z AUTO 20010KT 9999 SCT014 09/08 Q0999   
EGSS 190650Z AUTO 21008KT 9999 NCD 09/08 Q0998  
EGSS 190620Z AUTO 20009KT 9999 NCD 09/08 Q0998  
EGSS 190550Z AUTO 21010KT 9999 NCD 09/08 Q0998  
EGSS 190520Z AUTO 19009KT 9999 NCD 09/08 Q0998  
EGSS 190450Z AUTO 18009KT 9999 NCD 09/08 Q0998  
EGSS 190420Z AUTO 18008KT 9999 NCD 09/08 Q0998  
EGSS 190350Z AUTO 18010KT 9999 NCD 09/08 Q0998  
EGSS 190320Z AUTO 18010KT 9999 NCD 09/08 Q0998  
EGSS 190250Z AUTO 18009KT 9999 NCD 09/08 Q0998  
EGSS 190220Z AUTO 18008KT 9999 FEW019 09/08 Q0998   
EGSS 190150Z AUTO 18008KT 9999 NCD 10/08 Q0998  
EGSS 190120Z AUTO 19010KT 9999 NCD 10/08 Q0998  
EGSS 190050Z AUTO 20011KT 9999 NCD 10/08 Q0998  
EGSS 190020Z AUTO 19011KT 9999 NCD 10/08 Q0998  
EGSS 182350Z AUTO 19009KT 9999 NCD 10/09 Q0999  
EGSS 182320Z AUTO 18009KT 9999 NCD 10/08 Q0999  
EGSS 182250Z AUTO 19009KT 9999 NCD 10/08 Q0999  
EGSS 182220Z AUTO 20012KT 9999 NCD 11/08 Q0999  
EGSS 182150Z AUTO 19013KT 9999 NCD 11/08 Q0999  
EGSS 182120Z AUTO 19012KT 9999 NCD 11/08 Q0999  
EGSS 182050Z AUTO 20014KT 9999 FEW029 11/08 Q0999   
EGSS 182020Z AUTO 21013KT 9999 SCT043 BKN049 12/08 Q1000
EGSS 181950Z AUTO 21015KT 9999 NCD 11/08 Q1000